createdAt,value
2023-03-02T00:00:23.052Z,1.05
2023-03-02T00:03:10.438Z,0.80
2023-03-02T00:05:57.099Z,1.00
2023-03-02T00:08:43.183Z,1.10
2023-03-02T00:11:32.158Z,0.60
2023-03-02T00:14:18.160Z,1.27
2023-03-02T00:17:05.288Z,1.10
2023-03-02T00:19:51.060Z,1.10
2023-03-02T00:22:39.190Z,1.90
2023-03-02T00:25:24.570Z,1.30
2023-03-02T00:28:10.061Z,1.58
2023-03-02T00:30:56.228Z,0.85
2023-03-02T00:33:42.486Z,2.08
2023-03-02T00:36:28.018Z,1.70
2023-03-02T00:39:13.983Z,1.15
2023-03-02T00:41:59.799Z,0.70
2023-03-02T00:44:45.409Z,1.17
2023-03-02T00:47:34.395Z,1.23
2023-03-02T00:50:19.800Z,1.98
2023-03-02T00:53:05.505Z,2.38
2023-03-02T00:55:55.636Z,1.77
2023-03-02T00:58:41.476Z,1.38
2023-03-02T01:01:26.898Z,1.58
2023-03-02T01:04:12.345Z,1.40
2023-03-02T01:07:02.262Z,2.88
2023-03-02T01:09:48.495Z,1.23
2023-03-02T01:12:34.204Z,1.00
2023-03-02T01:15:19.715Z,1.98
2023-03-02T01:18:05.471Z,0.90
2023-03-02T01:20:50.836Z,1.80
2023-03-02T01:23:36.246Z,1.63
2023-03-02T01:26:21.912Z,1.15
2023-03-02T01:29:07.216Z,0.75
2023-03-02T01:31:53.006Z,1.10
2023-03-02T01:34:38.559Z,0.70
2023-03-02T01:37:23.956Z,1.90
2023-03-02T01:40:13.848Z,0.80
2023-03-02T01:43:02.666Z,1.38
2023-03-02T01:46:02.097Z,1.10
2023-03-02T01:49:06.129Z,0.73
2023-03-02T01:51:51.939Z,1.67
2023-03-02T01:54:40.011Z,0.73
2023-03-02T01:57:32.926Z,0.98
2023-03-02T02:00:26.874Z,0.98
2023-03-02T02:03:23.779Z,2.00
2023-03-02T02:06:31.848Z,0.88
2023-03-02T02:09:23.119Z,1.05
2023-03-02T02:12:19.683Z,0.50
2023-03-02T02:15:07.108Z,0.55
2023-03-02T02:17:53.424Z,0.95
2023-03-02T02:20:45.472Z,1.23
2023-03-02T02:24:22.039Z,1.77
2023-03-02T02:27:08.378Z,1.50
2023-03-02T02:29:54.559Z,1.40
2023-03-02T02:32:41.830Z,1.05
2023-03-02T02:35:30.267Z,0.77
2023-03-02T02:38:19.450Z,1.30
2023-03-02T02:41:09.312Z,1.33
2023-03-02T02:43:55.703Z,0.88
2023-03-02T02:46:41.537Z,2.13
2023-03-02T02:49:39.818Z,0.77
2023-03-02T02:52:28.960Z,0.65
2023-03-02T02:55:22.214Z,0.65
2023-03-02T02:58:36.032Z,0.63
2023-03-02T03:01:24.424Z,1.23
2023-03-02T03:04:18.873Z,1.30
2023-03-02T03:07:06.533Z,0.95
2023-03-02T03:10:14.346Z,0.93
2023-03-02T03:12:59.822Z,0.60
2023-03-02T03:15:45.522Z,1.20
2023-03-02T03:18:31.352Z,1.40
2023-03-02T03:21:17.244Z,1.13
2023-03-02T03:24:03.335Z,1.08
2023-03-02T03:26:49.945Z,0.77
2023-03-02T03:29:39.139Z,0.85
2023-03-02T03:32:24.561Z,1.60
2023-03-02T03:35:10.816Z,1.05
2023-03-02T03:37:56.970Z,0.88
2023-03-02T03:40:42.789Z,1.88
2023-03-02T03:43:28.344Z,1.00
2023-03-02T03:46:13.951Z,1.75
2023-03-02T03:48:59.717Z,1.95
2023-03-02T03:51:45.454Z,1.20
2023-03-02T03:54:31.103Z,1.58
2023-03-02T03:57:16.463Z,1.25
2023-03-02T04:00:04.743Z,0.98
2023-03-02T04:02:50.497Z,2.70
2023-03-02T04:05:36.060Z,1.25
2023-03-02T04:08:22.297Z,1.50
2023-03-02T04:11:07.808Z,1.92
2023-03-02T04:13:53.109Z,0.63
2023-03-02T04:16:41.814Z,1.15
2023-03-02T04:19:27.622Z,1.60
2023-03-02T04:22:13.068Z,1.65
2023-03-02T04:24:58.508Z,0.85
2023-03-02T04:27:43.867Z,1.30
2023-03-02T04:30:29.497Z,1.05
2023-03-02T04:33:15.286Z,1.10
2023-03-02T04:36:01.259Z,1.92
2023-03-02T04:38:48.091Z,1.70
2023-03-02T04:41:34.189Z,2.65
2023-03-02T04:44:20.895Z,2.63
2023-03-02T04:47:06.219Z,1.75
2023-03-02T04:49:51.651Z,0.55
2023-03-02T04:52:37.544Z,0.77
2023-03-02T04:55:26.680Z,2.13
2023-03-02T04:58:12.028Z,2.45
2023-03-02T05:00:57.538Z,0.70
2023-03-02T05:03:43.271Z,2.38
2023-03-02T05:06:29.026Z,1.63
2023-03-02T05:09:15.090Z,1.77
2023-03-02T05:12:02.058Z,0.90
2023-03-02T05:14:48.080Z,0.90
2023-03-02T05:17:33.521Z,0.60
2023-03-02T05:20:20.271Z,2.38
2023-03-02T05:23:09.661Z,0.80
2023-03-02T05:25:56.484Z,0.98
2023-03-02T05:28:43.063Z,1.98
2023-03-02T05:31:35.949Z,2.72
2023-03-02T05:34:21.701Z,2.05
2023-03-02T05:37:07.344Z,0.98
2023-03-02T05:39:52.943Z,0.90
2023-03-02T05:42:38.643Z,0.70
2023-03-02T05:45:33.568Z,3.78
2023-03-02T05:48:18.979Z,1.50
2023-03-02T05:51:05.047Z,1.40
2023-03-02T05:53:50.720Z,2.50
2023-03-02T05:56:36.193Z,2.05
2023-03-02T05:59:21.492Z,1.38
2023-03-02T06:02:07.201Z,1.67
2023-03-02T06:04:52.455Z,1.00
2023-03-02T06:07:38.550Z,2.17
2023-03-02T06:10:24.604Z,0.98
2023-03-02T06:13:10.505Z,2.95
2023-03-02T06:15:56.188Z,2.20
2023-03-02T06:18:41.730Z,1.27
2023-03-02T06:21:27.556Z,1.10
2023-03-02T06:24:12.946Z,2.65
2023-03-02T06:26:58.334Z,1.00
2023-03-02T06:29:43.968Z,1.85
2023-03-02T06:32:29.307Z,3.35
2023-03-02T06:35:15.818Z,2.10
2023-03-02T06:38:01.864Z,1.98
2023-03-02T06:40:47.341Z,2.25
2023-03-02T06:43:32.969Z,1.60
2023-03-02T06:46:18.496Z,1.38
2023-03-02T06:49:05.132Z,1.95
2023-03-02T06:51:50.951Z,1.55
2023-03-02T06:54:36.885Z,1.38
2023-03-02T06:57:22.730Z,1.13
2023-03-02T07:00:11.901Z,1.33
2023-03-02T07:02:57.438Z,1.73
2023-03-02T07:05:45.779Z,1.30
2023-03-02T07:08:32.027Z,0.95
2023-03-02T07:11:17.923Z,1.83
2023-03-02T07:14:03.663Z,1.27
2023-03-02T07:16:49.068Z,1.63
2023-03-02T07:19:34.796Z,1.55
2023-03-02T07:22:20.284Z,1.75
2023-03-02T07:25:06.994Z,1.45
2023-03-02T07:27:52.780Z,1.80
2023-03-02T07:30:38.242Z,1.85
2023-03-02T07:33:23.566Z,0.95
2023-03-02T07:36:10.167Z,1.77
2023-03-02T07:38:55.533Z,1.00
2023-03-02T07:41:41.035Z,0.73
2023-03-02T07:44:27.796Z,2.78
2023-03-02T07:47:13.424Z,1.90
2023-03-02T07:49:58.936Z,1.52
2023-03-02T07:52:44.344Z,2.30
2023-03-02T07:55:29.893Z,1.45
2023-03-02T07:58:15.346Z,1.17
2023-03-02T08:01:00.789Z,1.88
2023-03-02T08:03:46.438Z,1.95
2023-03-02T08:06:31.705Z,2.58
2023-03-02T08:09:17.866Z,2.30
2023-03-02T08:12:03.873Z,2.58
2023-03-02T08:14:49.556Z,1.98
2023-03-02T08:17:35.525Z,3.83
2023-03-02T08:20:21.338Z,2.05
2023-03-02T08:23:07.815Z,2.20
2023-03-02T08:25:54.903Z,1.67
2023-03-02T08:28:41.039Z,2.17
2023-03-02T08:31:27.047Z,1.52
2023-03-02T08:34:12.773Z,2.50
2023-03-02T08:36:58.161Z,1.98
2023-03-02T08:39:43.643Z,0.85
2023-03-02T08:42:28.994Z,1.58
2023-03-02T08:45:14.452Z,1.80
2023-03-02T08:48:00.084Z,1.52
2023-03-02T08:50:45.428Z,2.15
2023-03-02T08:53:37.133Z,1.42
2023-03-02T08:56:31.226Z,1.88
2023-03-02T08:59:17.453Z,1.35
2023-03-02T09:02:02.825Z,1.50
2023-03-02T09:04:48.212Z,1.75
2023-03-02T09:07:33.581Z,1.98
2023-03-02T09:10:19.118Z,1.63
2023-03-02T09:13:08.065Z,1.48
2023-03-02T09:15:54.213Z,2.00
2023-03-02T09:18:39.827Z,1.83
2023-03-02T09:21:25.686Z,1.10
2023-03-02T09:24:11.378Z,1.75
2023-03-02T09:26:56.931Z,1.77
2023-03-02T09:29:42.492Z,2.60
2023-03-02T09:32:28.009Z,1.95
2023-03-02T09:35:13.911Z,2.58
2023-03-02T09:37:59.433Z,2.10
2023-03-02T09:41:07.517Z,1.95
2023-03-02T09:44:35.326Z,0.88
2023-03-02T09:48:13.309Z,1.27
2023-03-02T09:51:47.773Z,2.05
2023-03-02T09:54:35.357Z,2.55
2023-03-02T09:57:35.406Z,1.77
2023-03-02T10:00:37.480Z,1.90
2023-03-02T10:03:51.136Z,2.90
2023-03-02T10:06:36.940Z,1.48
2023-03-02T10:09:22.549Z,1.63
2023-03-02T10:12:48.388Z,1.48
2023-03-02T10:15:59.042Z,1.77
2023-03-02T10:19:26.898Z,1.30
2023-03-02T10:22:39.665Z,2.85
2023-03-02T10:25:56.224Z,1.23
2023-03-02T10:28:54.465Z,1.88
2023-03-02T10:31:43.378Z,1.77
2023-03-02T10:34:33.461Z,1.77
2023-03-02T10:37:25.301Z,1.02
2023-03-02T10:40:48.245Z,2.65
2023-03-02T10:43:46.514Z,1.55
2023-03-02T10:46:45.509Z,1.73
2023-03-02T10:49:38.051Z,1.65
2023-03-02T10:52:28.388Z,1.67
2023-03-02T10:55:16.287Z,1.17
2023-03-02T10:58:29.773Z,0.80
2023-03-02T11:01:19.430Z,1.20
2023-03-02T11:04:12.188Z,1.45
2023-03-02T11:07:19.673Z,1.25
2023-03-02T11:10:22.901Z,1.35
2023-03-02T11:13:29.907Z,0.63
2023-03-02T11:16:19.037Z,1.45
2023-03-02T11:19:25.059Z,0.93
2023-03-02T11:23:00.462Z,1.52
2023-03-02T11:26:06.554Z,0.77
2023-03-02T11:29:30.872Z,1.50
2023-03-02T11:32:43.597Z,1.27
2023-03-02T11:35:53.159Z,0.98
2023-03-02T11:38:49.259Z,1.13
2023-03-02T11:41:35.935Z,2.20
2023-03-02T11:44:22.060Z,1.00
2023-03-02T11:47:12.372Z,1.48
2023-03-02T11:50:04.241Z,1.75
2023-03-02T11:52:59.796Z,1.15
2023-03-02T11:55:49.849Z,2.20
2023-03-02T11:58:37.282Z,1.33
2023-03-02T12:01:26.989Z,2.13
2023-03-02T12:04:38.077Z,1.33
2023-03-02T12:07:26.710Z,1.40
2023-03-02T12:10:40.486Z,1.50
2023-03-02T12:13:39.916Z,0.90
2023-03-02T12:16:44.216Z,1.15
2023-03-02T12:19:42.389Z,1.75
2023-03-02T12:22:32.346Z,2.03
2023-03-02T12:25:21.064Z,2.13
2023-03-02T12:28:32.350Z,1.60
2023-03-02T12:31:17.961Z,1.58
2023-03-02T12:34:42.020Z,2.00
2023-03-02T12:37:49.882Z,1.38
2023-03-02T12:41:08.836Z,1.73
2023-03-02T12:44:20.002Z,0.98
2023-03-02T12:47:16.847Z,1.02
2023-03-02T12:50:22.129Z,1.60
2023-03-02T12:53:19.674Z,1.95
2023-03-02T12:56:08.342Z,1.02
2023-03-02T12:58:54.951Z,1.58
2023-03-02T13:01:40.506Z,1.33
2023-03-02T13:04:27.503Z,0.80
2023-03-02T13:07:22.462Z,1.25
2023-03-02T13:10:34.873Z,1.20
2023-03-02T13:13:28.026Z,1.45
2023-03-02T13:16:43.104Z,0.73
2023-03-02T13:19:29.952Z,0.82
2023-03-02T13:22:15.462Z,0.93
2023-03-02T13:25:17.314Z,1.33
2023-03-02T13:28:03.036Z,1.38
2023-03-02T13:31:07.317Z,1.65
2023-03-02T13:33:56.334Z,1.38
2023-03-02T13:36:41.994Z,0.98
2023-03-02T13:39:31.064Z,0.82
2023-03-02T13:42:35.952Z,1.20
2023-03-02T13:45:32.389Z,0.65
2023-03-02T13:48:17.734Z,1.00
2023-03-02T13:51:19.128Z,0.60
2023-03-02T13:54:22.144Z,1.40
2023-03-02T13:57:19.220Z,1.23
2023-03-02T14:00:06.114Z,1.08
2023-03-02T14:02:51.802Z,1.85
2023-03-02T14:05:37.369Z,0.70
2023-03-02T14:08:22.899Z,1.07
2023-03-02T14:11:11.107Z,1.05
2023-03-02T14:13:56.413Z,0.82
2023-03-02T14:16:44.559Z,0.65
2023-03-02T14:19:30.138Z,1.60
2023-03-02T14:22:15.455Z,1.30
2023-03-02T14:25:01.035Z,0.70
2023-03-02T14:27:46.653Z,1.15
2023-03-02T14:30:32.288Z,0.70
2023-03-02T14:33:17.977Z,0.60
2023-03-02T14:36:05.064Z,0.43
2023-03-02T14:38:50.788Z,1.30
2023-03-02T14:41:43.877Z,0.85
2023-03-02T14:44:36.593Z,0.93
2023-03-02T14:47:21.974Z,1.58
2023-03-02T14:50:08.944Z,1.40
2023-03-02T14:52:57.856Z,0.85
2023-03-02T14:55:43.664Z,0.70
2023-03-02T14:58:34.555Z,1.00
2023-03-02T15:01:22.156Z,2.10
2023-03-02T15:04:07.777Z,2.17
2023-03-02T15:06:53.495Z,2.05
2023-03-02T15:09:40.047Z,1.83
2023-03-02T15:12:26.290Z,2.05
2023-03-02T15:15:12.717Z,1.75
2023-03-02T15:17:58.462Z,1.00
2023-03-02T15:20:43.910Z,1.70
2023-03-02T15:23:29.140Z,2.83
2023-03-02T15:26:15.581Z,1.92
2023-03-02T15:29:01.081Z,1.02
2023-03-02T15:31:47.011Z,1.25
2023-03-02T15:34:32.756Z,1.27
2023-03-02T15:37:18.135Z,0.98
2023-03-02T15:40:04.189Z,0.82
2023-03-02T15:42:49.561Z,1.27
2023-03-02T15:45:34.985Z,1.13
2023-03-02T15:48:20.601Z,0.60
2023-03-02T15:51:08.286Z,2.00
2023-03-02T15:53:53.906Z,0.55
2023-03-02T15:56:44.340Z,0.98
2023-03-02T15:59:31.771Z,0.88
2023-03-02T16:02:17.166Z,0.52
2023-03-02T16:05:02.655Z,0.98
2023-03-02T16:07:48.734Z,0.80
2023-03-02T16:10:34.342Z,0.82
2023-03-02T16:13:20.014Z,2.03
2023-03-02T16:16:06.717Z,1.73
2023-03-02T16:18:56.343Z,4.07
2023-03-02T16:21:42.362Z,3.88
2023-03-02T16:24:27.885Z,5.72
2023-03-02T16:27:13.479Z,6.65
2023-03-02T16:29:59.262Z,4.50
2023-03-02T16:32:45.102Z,3.25
2023-03-02T16:35:34.684Z,2.47
2023-03-02T16:38:20.449Z,1.92
2023-03-02T16:41:23.518Z,1.98
2023-03-02T16:44:11.007Z,2.28
2023-03-02T16:46:58.917Z,2.00
2023-03-02T16:49:44.885Z,1.65
2023-03-02T16:52:30.273Z,1.40
2023-03-02T16:55:19.400Z,1.23
2023-03-02T16:58:04.940Z,0.95
2023-03-02T17:00:50.832Z,1.20
2023-03-02T17:03:36.707Z,1.05
2023-03-02T17:06:24.594Z,1.15
2023-03-02T17:09:11.849Z,1.25
2023-03-02T17:11:58.697Z,0.90
2023-03-02T17:14:44.271Z,1.17
2023-03-02T17:17:29.793Z,1.13
2023-03-02T17:20:15.335Z,1.70
2023-03-02T17:23:00.811Z,0.80
2023-03-02T17:25:46.407Z,0.82
2023-03-02T17:28:32.310Z,1.20
2023-03-02T17:31:17.767Z,0.85
2023-03-02T17:34:03.760Z,1.08
2023-03-02T17:36:49.458Z,1.15
2023-03-02T17:39:34.904Z,1.33
2023-03-02T17:42:20.651Z,1.77
2023-03-02T17:45:18.320Z,0.70
2023-03-02T17:48:04.206Z,0.75
2023-03-02T17:50:49.830Z,1.30
2023-03-02T17:53:35.255Z,1.25
2023-03-02T17:56:25.825Z,1.15
2023-03-02T17:59:11.148Z,0.95
2023-03-02T18:01:57.200Z,4.30
2023-03-02T18:04:43.167Z,1.45
2023-03-02T18:07:28.616Z,1.27
2023-03-02T18:10:14.668Z,2.47
2023-03-02T18:13:00.044Z,2.17
2023-03-02T18:15:45.638Z,2.17
2023-03-02T18:18:31.101Z,1.92
2023-03-02T18:21:18.413Z,1.70
2023-03-02T18:24:04.868Z,3.65
2023-03-02T18:26:50.756Z,2.67
2023-03-02T18:29:36.025Z,1.73
2023-03-02T18:32:22.110Z,1.70
2023-03-02T18:35:08.366Z,1.38
2023-03-02T18:37:54.127Z,1.42
2023-03-02T18:40:40.214Z,1.20
2023-03-02T18:43:27.639Z,1.83
2023-03-02T18:46:30.508Z,1.70
2023-03-02T18:49:16.486Z,2.90
2023-03-02T18:52:01.879Z,1.17
2023-03-02T18:54:47.896Z,1.50
2023-03-02T18:57:33.823Z,1.42
2023-03-02T19:00:27.850Z,0.82
2023-03-02T19:03:17.605Z,0.95
2023-03-02T19:06:04.349Z,3.47
2023-03-02T19:08:50.281Z,1.30
2023-03-02T19:11:36.123Z,1.45
2023-03-02T19:14:21.872Z,1.30
2023-03-02T19:17:07.461Z,3.00
2023-03-02T19:19:53.090Z,5.03
2023-03-02T19:22:38.672Z,2.25
2023-03-02T19:25:24.326Z,3.35
2023-03-02T19:28:11.084Z,1.70
2023-03-02T19:30:56.729Z,1.90
2023-03-02T19:33:43.180Z,1.73
2023-03-02T19:36:29.006Z,1.98
2023-03-02T19:39:15.049Z,2.38
2023-03-02T19:42:00.783Z,3.33
2023-03-02T19:44:46.231Z,2.60
2023-03-02T19:47:31.483Z,3.58
2023-03-02T19:50:19.854Z,5.18
2023-03-02T19:53:05.951Z,4.82
2023-03-02T19:55:51.579Z,7.72
2023-03-02T19:58:37.646Z,4.55
2023-03-02T20:01:23.806Z,3.30
2023-03-02T20:04:09.838Z,3.42
2023-03-02T20:06:55.278Z,4.55
2023-03-02T20:09:40.996Z,3.50
2023-03-02T20:12:26.467Z,2.50
2023-03-02T20:15:12.534Z,3.17
2023-03-02T20:17:59.677Z,3.92
2023-03-02T20:20:46.813Z,2.75
2023-03-02T20:23:32.551Z,3.90
2023-03-02T20:26:19.195Z,5.07
2023-03-02T20:29:05.629Z,4.57
2023-03-02T20:31:51.548Z,4.72
2023-03-02T20:34:40.486Z,5.30
2023-03-02T20:37:26.360Z,2.85
2023-03-02T20:40:16.758Z,3.05
2023-03-02T20:43:03.151Z,2.33
2023-03-02T20:45:49.235Z,4.45
2023-03-02T20:48:36.137Z,3.45
2023-03-02T20:51:23.180Z,4.50
2023-03-02T20:54:09.155Z,3.08
2023-03-02T20:56:55.200Z,2.72
2023-03-02T20:59:40.921Z,2.63
2023-03-02T21:02:26.596Z,2.50
2023-03-02T21:05:12.598Z,3.83
2023-03-02T21:07:58.234Z,4.72
2023-03-02T21:10:44.882Z,3.10
2023-03-02T21:13:30.674Z,4.72
2023-03-02T21:16:27.619Z,2.58
2023-03-02T21:19:17.813Z,5.07
2023-03-02T21:22:03.958Z,3.22
2023-03-02T21:24:49.350Z,4.10
2023-03-02T21:27:37.043Z,4.82
2023-03-02T21:30:29.440Z,2.65
2023-03-02T21:33:15.238Z,2.60
2023-03-02T21:36:00.772Z,3.08
2023-03-02T21:38:46.392Z,3.80
2023-03-02T21:41:31.837Z,3.70
2023-03-02T21:44:18.349Z,3.22
2023-03-02T21:47:04.128Z,2.92
2023-03-02T21:49:49.660Z,3.38
2023-03-02T21:52:35.077Z,2.60
2023-03-02T21:55:20.657Z,2.55
2023-03-02T21:58:06.203Z,1.88
2023-03-02T22:00:51.950Z,2.88
2023-03-02T22:03:37.362Z,2.53
2023-03-02T22:06:28.935Z,1.73
2023-03-02T22:09:14.287Z,2.15
2023-03-02T22:11:59.742Z,1.58
2023-03-02T22:14:45.303Z,2.17
2023-03-02T22:17:30.827Z,1.73
2023-03-02T22:20:19.780Z,1.17
2023-03-02T22:23:13.601Z,1.60
2023-03-02T22:26:15.424Z,1.98
2023-03-02T22:29:13.270Z,2.60
2023-03-02T22:32:24.525Z,2.83
2023-03-02T22:35:28.357Z,2.50
2023-03-02T22:38:26.290Z,2.08
2023-03-02T22:41:18.011Z,1.45
2023-03-02T22:44:13.032Z,3.47
2023-03-02T22:46:58.842Z,2.80
2023-03-02T22:49:46.090Z,2.90
2023-03-02T22:52:38.949Z,1.55
2023-03-02T22:55:35.929Z,3.63
2023-03-02T22:58:43.237Z,2.67
2023-03-02T23:01:44.825Z,2.95
2023-03-02T23:04:37.134Z,1.52
2023-03-02T23:07:23.222Z,3.20
2023-03-02T23:10:22.052Z,5.10
2023-03-02T23:13:12.628Z,3.97
2023-03-02T23:15:57.915Z,2.85
2023-03-02T23:18:43.688Z,3.28
2023-03-02T23:21:44.573Z,3.38
2023-03-02T23:24:30.220Z,1.98
2023-03-02T23:27:15.658Z,3.08
2023-03-02T23:30:01.527Z,2.42
2023-03-02T23:32:47.426Z,2.35
2023-03-02T23:35:33.626Z,1.60
2023-03-02T23:38:19.348Z,5.25
2023-03-02T23:41:05.726Z,2.72
2023-03-02T23:43:51.471Z,3.53
2023-03-02T23:46:36.932Z,3.53
2023-03-02T23:49:22.479Z,2.45
2023-03-02T23:52:08.122Z,1.85
2023-03-02T23:54:53.578Z,2.15
2023-03-02T23:57:39.105Z,5.18
